createdAt,value
2023-01-20T05:33:05.478Z,99364.97
2023-01-20T05:37:08.617Z,99364.97
2023-01-20T05:41:11.586Z,99360.91
2023-01-20T05:45:14.884Z,99367.00
2023-01-20T05:49:17.741Z,99376.84
2023-01-20T05:53:20.907Z,99376.25
2023-01-20T05:57:26.712Z,99375.41
2023-01-20T06:01:29.735Z,99375.78
2023-01-20T06:05:32.866Z,99374.81
2023-01-20T06:09:35.842Z,99372.25
2023-01-20T06:13:41.209Z,99376.31
2023-01-20T06:17:46.684Z,99375.41
2023-01-20T06:21:49.754Z,99380.34
2023-01-20T06:26:06.879Z,99369.78
2023-01-20T06:30:11.021Z,99379.47
2023-01-20T06:34:14.017Z,99368.50
2023-01-20T06:38:18.058Z,99377.69
2023-01-20T06:42:31.797Z,99385.38
2023-01-20T06:46:58.745Z,99385.69
2023-01-20T06:51:03.376Z,99382.97
2023-01-20T06:55:07.668Z,99402.28
2023-01-20T06:59:13.417Z,99414.69
2023-01-20T07:03:17.875Z,99411.06
2023-01-20T07:07:21.351Z,99418.62
2023-01-20T07:11:25.334Z,99424.09
2023-01-20T07:15:28.218Z,99426.31
2023-01-20T07:19:34.475Z,99427.72
2023-01-20T07:23:39.896Z,99431.66
2023-01-20T07:27:59.476Z,99436.44
2023-01-20T07:32:02.503Z,99433.50
2023-01-20T07:36:07.585Z,99426.69
2023-01-20T07:40:15.656Z,99428.81
2023-01-20T07:44:25.310Z,99424.28
2023-01-20T07:48:32.033Z,99435.84
2023-01-20T07:52:39.744Z,99434.22
2023-01-20T07:56:42.775Z,99442.09
2023-01-20T08:00:48.894Z,99436.87
2023-01-20T08:04:52.244Z,99444.56
2023-01-20T08:08:58.466Z,99452.06
2023-01-20T08:13:02.283Z,99451.63
2023-01-20T08:17:05.004Z,99445.72
2023-01-20T08:21:16.419Z,99450.25
2023-01-20T08:25:19.072Z,99453.38
2023-01-20T08:29:22.715Z,99441.97
2023-01-20T08:33:26.575Z,99444.41
2023-01-20T08:37:29.553Z,99460.09
2023-01-20T08:41:37.623Z,99454.63
2023-01-20T08:46:03.196Z,99472.03
2023-01-20T08:50:07.184Z,99472.38
2023-01-20T08:54:10.674Z,99476.00
2023-01-20T08:58:13.366Z,99477.81
2023-01-20T09:02:22.166Z,99485.91
2023-01-20T09:06:24.962Z,99477.78
2023-01-20T09:10:38.515Z,99476.59
2023-01-20T09:14:45.090Z,99469.22
2023-01-20T09:18:51.656Z,99467.37
2023-01-20T09:22:57.783Z,99453.38
2023-01-20T09:27:05.185Z,99441.03
2023-01-20T09:31:10.051Z,99434.63
2023-01-20T09:35:16.120Z,99426.41
2023-01-20T09:39:43.129Z,99417.91
2023-01-20T09:43:55.508Z,99426.66
2023-01-20T09:48:41.489Z,99424.06
2023-01-20T09:53:02.951Z,99423.38
2023-01-20T09:57:07.436Z,99422.13
2023-01-20T10:01:18.893Z,99415.97
2023-01-20T10:05:30.755Z,99408.56
2023-01-20T10:10:03.104Z,99399.47
2023-01-20T10:14:35.705Z,99390.97
2023-01-20T10:18:48.419Z,99380.00
2023-01-20T10:22:56.083Z,99381.25
2023-01-20T10:27:04.963Z,99384.94
2023-01-20T10:31:24.228Z,99388.00
2023-01-20T10:35:28.855Z,99377.25
2023-01-20T10:39:39.512Z,99377.53
2023-01-20T10:43:43.067Z,99374.25
2023-01-20T10:48:07.597Z,99365.72
2023-01-20T10:52:13.485Z,99371.94
2023-01-20T10:56:32.744Z,99374.56
2023-01-20T11:00:39.893Z,99380.84
2023-01-20T11:04:53.105Z,99378.53
2023-01-20T11:08:56.985Z,99363.66
2023-01-20T11:13:02.638Z,99355.28
2023-01-20T11:17:07.304Z,99348.97
2023-01-20T11:21:13.342Z,99330.94
2023-01-20T11:25:27.392Z,99328.72
2023-01-20T11:29:31.711Z,99320.50
2023-01-20T11:33:34.559Z,99317.91
2023-01-20T11:37:40.590Z,99302.78
2023-01-20T11:41:43.734Z,99297.56
2023-01-20T11:45:47.712Z,99309.63
2023-01-20T11:50:09.357Z,99306.91
2023-01-20T11:54:16.384Z,99294.31
2023-01-20T11:58:25.802Z,99294.53
2023-01-20T12:02:28.971Z,99292.34
2023-01-20T12:07:00.117Z,99288.88
2023-01-20T12:11:05.518Z,99296.78
2023-01-20T12:15:25.728Z,99298.38
2023-01-20T12:20:00.018Z,99282.06
2023-01-20T12:24:42.429Z,99303.12
2023-01-20T12:28:54.879Z,99312.72
2023-01-20T12:32:58.702Z,99307.34
2023-01-20T12:37:04.258Z,99299.00
2023-01-20T12:41:13.837Z,99292.75
2023-01-20T12:45:34.955Z,99291.19
2023-01-20T12:49:48.732Z,99297.13
2023-01-20T12:54:20.050Z,99294.56
2023-01-20T12:58:36.013Z,99303.28
2023-01-20T13:03:16.569Z,99303.53
2023-01-20T13:07:30.269Z,99305.91
2023-01-20T13:11:32.899Z,99307.91
2023-01-20T13:15:42.030Z,99313.44
2023-01-20T13:19:49.617Z,99316.63
2023-01-20T13:23:52.903Z,99313.84
2023-01-20T13:27:55.955Z,99313.47
2023-01-20T13:31:59.108Z,99301.81
2023-01-20T13:36:18.852Z,99311.47
2023-01-20T13:40:37.091Z,99312.22
2023-01-20T13:44:42.427Z,99310.22
2023-01-20T13:49:24.517Z,99306.31
2023-01-20T13:53:28.551Z,99314.28
2023-01-20T13:57:43.833Z,99322.22
2023-01-20T14:01:48.847Z,99324.13
2023-01-20T14:06:03.371Z,99335.75
2023-01-20T14:10:11.879Z,99340.13
2023-01-20T14:14:19.374Z,99345.72
2023-01-20T14:18:23.990Z,99341.72
2023-01-20T14:22:30.026Z,99352.91
2023-01-20T14:26:33.425Z,99350.63
2023-01-20T14:30:36.629Z,99344.87
2023-01-20T14:34:40.522Z,99350.59
2023-01-20T14:38:56.439Z,99355.53
2023-01-20T14:43:02.238Z,99365.28
2023-01-20T14:47:05.400Z,99366.00
2023-01-20T14:51:08.352Z,99370.91
2023-01-20T14:55:31.886Z,99369.37
2023-01-20T14:59:34.606Z,99369.84
2023-01-20T15:03:37.665Z,99377.34
2023-01-20T15:07:40.270Z,99377.00
2023-01-20T15:11:43.385Z,99389.31
2023-01-20T15:15:46.020Z,99385.06
2023-01-20T15:19:49.041Z,99381.97
2023-01-20T15:23:52.930Z,99380.66
2023-01-20T15:27:57.289Z,99377.94
2023-01-20T15:32:02.488Z,99398.50
2023-01-20T15:36:37.192Z,99394.00
2023-01-20T15:40:40.906Z,99395.91
2023-01-20T15:44:43.880Z,99394.50
2023-01-20T15:48:46.568Z,99411.75
2023-01-20T15:52:49.744Z,99415.50
2023-01-20T15:56:52.411Z,99416.81
2023-01-20T16:00:56.702Z,99420.13
2023-01-20T16:04:59.624Z,99427.44
2023-01-20T16:09:11.105Z,99426.62
2023-01-20T16:13:14.747Z,99410.56
2023-01-20T16:17:21.159Z,99417.75
2023-01-20T16:21:24.218Z,99430.63
